createdAt,value
2019-04-30T00:00:08.457Z,164.35
2019-04-30T00:02:45.368Z,163.40
2019-04-30T00:05:15.186Z,161.90
2019-04-30T00:07:41.462Z,164.85
2019-04-30T00:10:08.915Z,162.95
2019-04-30T00:12:39.415Z,163.43
2019-04-30T00:15:06.237Z,162.45
2019-04-30T00:17:35.920Z,163.18
2019-04-30T00:20:07.471Z,165.30
2019-04-30T00:22:39.369Z,162.35
2019-04-30T00:25:05.267Z,163.90
2019-04-30T00:27:33.067Z,162.82
2019-04-30T00:30:04.836Z,164.35
2019-04-30T00:32:30.577Z,166.40
2019-04-30T00:34:57.984Z,163.90
2019-04-30T00:37:26.826Z,163.45
2019-04-30T00:39:55.506Z,164.82
2019-04-30T00:42:24.271Z,165.37
2019-04-30T00:44:52.070Z,163.05
2019-04-30T00:47:19.101Z,165.37
2019-04-30T00:49:47.230Z,163.28
2019-04-30T00:52:15.390Z,164.67
2019-04-30T00:54:42.746Z,163.87
2019-04-30T00:57:09.839Z,162.15
2019-04-30T00:59:39.867Z,163.75
2019-04-30T01:02:28.891Z,163.12
2019-04-30T01:04:52.236Z,163.15
2019-04-30T01:07:19.472Z,165.15
2019-04-30T01:09:49.743Z,164.25
2019-04-30T01:12:27.675Z,167.18
2019-04-30T01:14:46.784Z,163.55
2019-04-30T01:17:13.866Z,163.45
2019-04-30T01:19:46.068Z,164.40
2019-04-30T01:22:11.396Z,163.20
2019-04-30T01:24:41.119Z,164.25
2019-04-30T01:27:10.468Z,163.18
2019-04-30T01:29:40.860Z,162.57
2019-04-30T01:32:10.485Z,163.43
2019-04-30T01:34:36.939Z,165.92
2019-04-30T01:37:04.020Z,163.77
2019-04-30T01:39:31.701Z,164.70
2019-04-30T01:42:02.948Z,164.55
2019-04-30T01:44:29.521Z,163.77
2019-04-30T01:46:56.645Z,163.32
2019-04-30T01:49:25.696Z,163.77
2019-04-30T01:51:57.407Z,163.00
2019-04-30T01:54:24.313Z,164.15
2019-04-30T01:57:13.443Z,163.05
2019-04-30T02:00:20.319Z,165.28
2019-04-30T02:02:49.420Z,163.30
2019-04-30T02:05:16.439Z,163.75
2019-04-30T02:07:45.923Z,166.30
2019-04-30T02:10:12.931Z,165.12
2019-04-30T02:12:40.193Z,164.22
2019-04-30T02:15:09.351Z,163.28
2019-04-30T02:17:38.687Z,165.07
2019-04-30T02:20:06.580Z,163.62
2019-04-30T02:22:33.635Z,164.32
2019-04-30T02:25:00.690Z,163.68
2019-04-30T02:27:29.419Z,163.30
2019-04-30T02:29:59.487Z,163.47
2019-04-30T02:32:26.665Z,163.97
2019-04-30T02:35:13.471Z,163.18
2019-04-30T02:38:01.355Z,166.03
2019-04-30T02:40:31.339Z,163.10
2019-04-30T02:43:01.769Z,163.15
2019-04-30T02:45:30.011Z,164.43
2019-04-30T02:47:59.383Z,163.52
2019-04-30T02:50:29.380Z,164.37
2019-04-30T02:53:09.733Z,166.25
2019-04-30T02:55:42.400Z,166.15
2019-04-30T02:58:10.171Z,162.82
2019-04-30T03:00:39.412Z,163.32
2019-04-30T03:03:06.498Z,163.37
2019-04-30T03:05:33.541Z,163.18
2019-04-30T03:08:01.518Z,165.37
2019-04-30T03:10:30.318Z,165.30
2019-04-30T03:12:59.982Z,165.03
2019-04-30T03:15:29.911Z,164.85
2019-04-30T03:18:04.007Z,163.55
2019-04-30T03:20:56.278Z,164.22
2019-04-30T03:23:23.326Z,164.35
2019-04-30T03:25:50.703Z,162.50
2019-04-30T03:28:20.280Z,164.30
2019-04-30T03:30:56.233Z,166.22
2019-04-30T03:33:22.357Z,164.52
2019-04-30T03:35:48.242Z,163.25
2019-04-30T03:38:15.498Z,163.70
2019-04-30T03:40:42.540Z,163.68
2019-04-30T03:43:10.824Z,165.35
2019-04-30T03:45:40.195Z,163.07
2019-04-30T03:48:10.219Z,161.35
2019-04-30T03:50:50.239Z,164.30
2019-04-30T03:53:06.241Z,161.18
2019-04-30T03:55:33.615Z,163.12
2019-04-30T03:58:00.928Z,164.88
2019-04-30T04:00:50.051Z,161.95
2019-04-30T04:03:16.822Z,162.65
2019-04-30T04:06:14.277Z,165.15
2019-04-30T04:08:52.861Z,164.80
2019-04-30T04:11:23.888Z,166.10
2019-04-30T04:13:50.934Z,162.97
2019-04-30T04:16:19.478Z,161.68
2019-04-30T04:18:49.814Z,161.82
2019-04-30T04:21:17.155Z,162.18
2019-04-30T04:23:46.295Z,161.80
2019-04-30T04:26:13.549Z,162.25
2019-04-30T04:28:43.195Z,161.95
2019-04-30T04:31:12.774Z,162.43
2019-04-30T04:33:39.989Z,162.95
2019-04-30T04:36:09.166Z,163.70
2019-04-30T04:38:40.294Z,161.77
2019-04-30T04:41:10.100Z,162.30
2019-04-30T04:43:36.212Z,162.00
2019-04-30T04:46:05.723Z,162.30
2019-04-30T04:48:44.400Z,162.30
2019-04-30T04:51:27.875Z,162.43
2019-04-30T04:53:40.553Z,161.25
2019-04-30T04:56:10.104Z,162.65
2019-04-30T04:58:36.955Z,162.80
2019-04-30T05:01:04.138Z,165.65
2019-04-30T05:03:40.488Z,162.53
2019-04-30T05:06:39.507Z,164.18
2019-04-30T05:09:09.699Z,163.72
2019-04-30T05:11:39.543Z,162.22
2019-04-30T05:14:08.368Z,163.18
2019-04-30T05:16:35.712Z,162.55
2019-04-30T05:19:02.744Z,162.22
2019-04-30T05:21:41.729Z,163.65
2019-04-30T05:23:59.131Z,163.45
2019-04-30T05:26:26.363Z,166.05
2019-04-30T05:28:53.446Z,161.80
2019-04-30T05:31:22.343Z,165.07
2019-04-30T05:33:49.406Z,164.77
2019-04-30T05:36:19.195Z,164.70
2019-04-30T05:38:46.555Z,163.82
2019-04-30T05:41:13.684Z,165.77
2019-04-30T05:43:42.008Z,164.80
2019-04-30T05:46:11.019Z,163.15
2019-04-30T05:48:39.860Z,162.22
2019-04-30T05:51:08.990Z,164.20
2019-04-30T05:53:36.229Z,162.10
2019-04-30T05:56:03.374Z,163.10
2019-04-30T05:58:30.421Z,163.03
2019-04-30T06:00:59.722Z,162.32
2019-04-30T06:03:32.910Z,166.30
2019-04-30T06:05:58.940Z,163.18
2019-04-30T06:08:29.335Z,163.95
2019-04-30T06:11:05.989Z,162.15
2019-04-30T06:13:52.435Z,166.37
2019-04-30T06:16:21.521Z,164.22
2019-04-30T06:18:48.609Z,163.40
2019-04-30T06:21:15.641Z,161.07
2019-04-30T06:23:46.797Z,165.90
2019-04-30T06:26:14.057Z,166.40
2019-04-30T06:28:42.019Z,164.15
2019-04-30T06:31:09.202Z,164.93
2019-04-30T06:33:38.857Z,164.90
2019-04-30T06:36:08.555Z,165.12
2019-04-30T06:38:35.629Z,162.40
2019-04-30T06:41:05.684Z,164.97
2019-04-30T06:43:32.928Z,163.72
2019-04-30T06:46:00.167Z,164.22
2019-04-30T06:48:29.616Z,161.75
2019-04-30T06:50:56.623Z,164.13
2019-04-30T06:53:23.664Z,162.53
2019-04-30T06:55:50.715Z,165.10
2019-04-30T06:58:20.274Z,165.25
2019-04-30T07:00:46.822Z,163.35
2019-04-30T07:03:14.977Z,162.03
2019-04-30T07:05:44.049Z,161.75
2019-04-30T07:08:39.140Z,162.25
2019-04-30T07:11:19.407Z,162.10
2019-04-30T07:13:51.781Z,161.47
2019-04-30T07:16:18.978Z,161.28
2019-04-30T07:18:46.438Z,163.82
2019-04-30T07:21:15.777Z,161.75
2019-04-30T07:23:45.489Z,161.75
2019-04-30T07:26:22.742Z,160.80
2019-04-30T07:28:51.485Z,162.50
2019-04-30T07:31:14.655Z,162.10
2019-04-30T07:33:43.134Z,161.07
2019-04-30T07:36:10.458Z,161.32
2019-04-30T07:41:09.537Z,159.10
2019-04-30T07:43:39.393Z,159.90
2019-04-30T07:46:05.925Z,158.55
2019-04-30T07:48:32.973Z,161.95
2019-04-30T07:51:00.071Z,162.20
2019-04-30T07:53:28.229Z,161.32
2019-04-30T07:55:58.694Z,159.78
2019-04-30T07:58:25.814Z,160.35
2019-04-30T08:00:56.269Z,160.32
2019-04-30T08:03:50.128Z,161.28
2019-04-30T08:06:18.979Z,159.00
2019-04-30T08:08:50.714Z,160.57
2019-04-30T08:09:35.036Z,162.22
2019-04-30T08:11:25.643Z,158.05
2019-04-30T08:13:50.670Z,158.72
2019-04-30T08:16:21.752Z,163.03
2019-04-30T08:18:49.282Z,160.35
2019-04-30T08:21:18.977Z,160.95
2019-04-30T08:23:46.410Z,161.47
2019-04-30T08:26:13.505Z,162.15
2019-04-30T08:28:40.561Z,162.65
2019-04-30T08:31:09.743Z,163.35
2019-04-30T08:33:36.783Z,165.47
2019-04-30T08:36:04.136Z,164.18
2019-04-30T08:38:31.216Z,163.07
2019-04-30T08:41:00.779Z,163.30
2019-04-30T08:43:29.228Z,163.92
2019-04-30T08:46:00.095Z,162.22
2019-04-30T08:48:41.922Z,164.82
2019-04-30T08:50:59.162Z,162.97
2019-04-30T08:53:30.599Z,161.22
2019-04-30T08:55:55.917Z,163.95
2019-04-30T08:58:23.382Z,163.25
2019-04-30T09:00:50.452Z,163.10
2019-04-30T09:03:19.398Z,161.35
2019-04-30T09:06:03.416Z,162.55
2019-04-30T09:08:30.688Z,163.28
2019-04-30T09:10:59.578Z,163.62
2019-04-30T09:13:28.693Z,163.32
2019-04-30T09:15:55.741Z,166.60
2019-04-30T09:18:22.897Z,163.25
2019-04-30T09:20:50.222Z,161.43
2019-04-30T09:23:18.722Z,162.20
2019-04-30T09:25:45.979Z,163.32
2019-04-30T09:28:13.140Z,165.45
2019-04-30T09:30:40.170Z,161.62
2019-04-30T09:33:10.908Z,162.47
2019-04-30T09:35:36.371Z,162.77
2019-04-30T09:38:03.714Z,162.75
2019-04-30T09:40:32.551Z,162.40
2019-04-30T09:43:00.420Z,162.85
2019-04-30T09:45:28.540Z,161.40
2019-04-30T09:47:55.792Z,164.18
2019-04-30T09:50:24.778Z,163.87
2019-04-30T09:52:52.054Z,164.25
2019-04-30T09:55:19.459Z,161.57
2019-04-30T09:57:46.571Z,163.43
2019-04-30T10:00:14.148Z,161.82
2019-04-30T10:02:41.383Z,161.60
2019-04-30T10:05:10.233Z,161.75
2019-04-30T10:07:39.365Z,163.30
2019-04-30T10:10:09.414Z,162.55
2019-04-30T10:12:36.191Z,160.97
2019-04-30T10:15:03.622Z,162.07
2019-04-30T10:17:38.742Z,162.70
2019-04-30T10:20:08.792Z,162.18
2019-04-30T10:22:35.871Z,163.43
2019-04-30T10:25:04.511Z,162.50
2019-04-30T10:27:31.986Z,164.45
2019-04-30T10:29:59.460Z,164.25
2019-04-30T10:32:26.754Z,161.35
2019-04-30T10:34:53.821Z,165.75
2019-04-30T10:37:21.110Z,167.25
2019-04-30T10:39:48.961Z,163.35
2019-04-30T10:42:17.307Z,164.80
2019-04-30T10:44:44.350Z,161.15
2019-04-30T10:47:11.656Z,162.18
2019-04-30T10:49:39.034Z,162.32
2019-04-30T10:52:06.456Z,161.50
2019-04-30T10:54:34.663Z,163.45
2019-04-30T10:57:02.922Z,164.77
2019-04-30T10:59:30.006Z,164.15
2019-04-30T11:01:59.076Z,164.20
2019-04-30T11:04:26.058Z,164.82
2019-04-30T11:06:53.203Z,164.82
2019-04-30T11:09:20.382Z,164.85
2019-04-30T11:11:49.578Z,161.32
2019-04-30T11:14:16.771Z,162.65
2019-04-30T11:16:44.008Z,162.90
2019-04-30T11:19:11.594Z,162.12
2019-04-30T11:21:42.860Z,166.32
2019-04-30T11:24:10.421Z,163.22
2019-04-30T11:26:40.349Z,167.22
2019-04-30T11:29:06.844Z,164.37
2019-04-30T11:32:04.310Z,163.28
2019-04-30T11:34:31.702Z,164.70
2019-04-30T11:37:00.569Z,164.72
2019-04-30T11:39:29.635Z,162.72
2019-04-30T11:42:01.004Z,160.70
2019-04-30T11:44:44.769Z,163.12
2019-04-30T11:47:25.182Z,161.82
2019-04-30T11:49:52.556Z,160.00
2019-04-30T11:52:20.144Z,162.50
2019-04-30T11:54:51.607Z,161.22
2019-04-30T11:57:20.964Z,162.10
2019-04-30T11:59:48.341Z,163.70
2019-04-30T12:02:24.072Z,162.37
2019-04-30T12:04:51.265Z,161.12
2019-04-30T12:07:38.718Z,165.55
2019-04-30T12:10:25.943Z,164.80
2019-04-30T12:12:53.015Z,165.57
2019-04-30T12:15:20.172Z,165.12
2019-04-30T12:17:49.073Z,164.03
2019-04-30T12:20:20.805Z,161.47
2019-04-30T12:22:49.407Z,163.37
2019-04-30T12:25:18.584Z,162.47
2019-04-30T12:27:45.690Z,164.45
2019-04-30T12:30:14.586Z,162.77
2019-04-30T12:32:41.773Z,164.20
2019-04-30T12:35:11.737Z,162.05
2019-04-30T12:37:39.784Z,165.97
2019-04-30T12:40:25.855Z,164.20
2019-04-30T12:42:45.913Z,165.03
2019-04-30T12:46:02.269Z,165.28
2019-04-30T12:52:16.659Z,163.80
2019-04-30T12:54:58.005Z,164.65
2019-04-30T12:57:56.194Z,165.15
2019-04-30T13:00:20.704Z,164.37
2019-04-30T13:02:52.832Z,165.50
2019-04-30T13:08:20.755Z,164.97
2019-04-30T13:10:53.578Z,164.80
2019-04-30T13:13:21.547Z,162.35
2019-04-30T13:15:48.919Z,166.18
2019-04-30T13:18:22.543Z,165.10
2019-04-30T13:20:54.666Z,164.52
2019-04-30T13:23:24.680Z,166.28
2019-04-30T13:25:51.906Z,165.85
2019-04-30T13:28:22.643Z,166.07
2019-04-30T13:31:09.274Z,167.05
2019-04-30T13:33:46.005Z,167.50
2019-04-30T13:36:19.889Z,165.90
2019-04-30T13:39:06.182Z,167.22
2019-04-30T13:41:43.680Z,167.53
2019-04-30T13:44:17.019Z,167.40
2019-04-30T13:46:44.176Z,168.15
2019-04-30T13:49:11.262Z,167.10
2019-04-30T13:51:38.332Z,164.37
2019-04-30T13:54:05.483Z,164.97
2019-04-30T13:56:34.352Z,164.93
2019-04-30T13:59:01.474Z,165.60
2019-04-30T14:01:29.446Z,166.28
2019-04-30T14:04:19.165Z,169.70
2019-04-30T14:07:02.051Z,166.05
2019-04-30T14:09:30.248Z,168.70
2019-04-30T14:11:57.326Z,165.57
2019-04-30T14:14:24.603Z,167.10
2019-04-30T14:16:52.001Z,167.35
2019-04-30T14:19:19.623Z,168.17
2019-04-30T14:21:49.242Z,170.40
2019-04-30T14:24:16.678Z,169.95
2019-04-30T14:26:44.063Z,168.93
2019-04-30T14:29:11.286Z,170.28
2019-04-30T14:31:38.829Z,170.57
2019-04-30T14:34:05.910Z,168.82
2019-04-30T14:36:33.029Z,169.30
2019-04-30T14:39:13.538Z,171.15
2019-04-30T14:41:33.165Z,172.22
2019-04-30T14:44:07.879Z,168.55
2019-04-30T14:46:52.959Z,167.45
2019-04-30T14:49:59.743Z,167.10
2019-04-30T14:52:19.544Z,167.32
2019-04-30T14:55:08.872Z,166.95
2019-04-30T14:57:55.680Z,167.87
2019-04-30T15:00:44.918Z,166.92
2019-04-30T15:03:14.431Z,166.75
2019-04-30T15:05:48.494Z,164.35
2019-04-30T15:08:10.753Z,165.22
2019-04-30T15:10:37.910Z,165.00
2019-04-30T15:13:09.588Z,166.57
2019-04-30T15:15:39.292Z,169.87
2019-04-30T15:18:09.237Z,166.35
2019-04-30T15:20:36.570Z,164.50
2019-04-30T15:23:30.227Z,164.55
2019-04-30T15:25:59.153Z,165.37
2019-04-30T15:28:32.478Z,166.55
2019-04-30T15:31:26.434Z,166.12
2019-04-30T15:34:03.229Z,165.25
2019-04-30T15:36:35.759Z,168.13
2019-04-30T15:39:24.590Z,167.95
2019-04-30T15:41:54.102Z,168.85
2019-04-30T15:44:30.925Z,168.22
2019-04-30T15:47:08.929Z,167.32
2019-04-30T15:49:36.601Z,166.73
2019-04-30T15:52:04.426Z,165.73
2019-04-30T15:54:31.568Z,166.32
2019-04-30T15:57:00.411Z,163.28
2019-04-30T15:59:39.509Z,166.88
2019-04-30T16:02:21.946Z,165.03
2019-04-30T16:05:02.479Z,165.18
2019-04-30T16:07:32.475Z,166.18
2019-04-30T16:10:54.363Z,165.85
2019-04-30T16:13:33.682Z,166.10
2019-04-30T16:16:00.770Z,166.50
2019-04-30T16:18:34.498Z,163.70
2019-04-30T16:21:01.588Z,163.80
2019-04-30T16:23:28.939Z,165.88
2019-04-30T16:25:56.001Z,166.40
2019-04-30T16:28:23.096Z,166.00
2019-04-30T16:30:50.365Z,165.12
2019-04-30T16:33:20.481Z,169.62
2019-04-30T16:35:50.880Z,164.93
2019-04-30T16:38:20.950Z,165.95
2019-04-30T16:40:58.510Z,165.95
2019-04-30T16:44:19.169Z,163.77
2019-04-30T16:46:49.377Z,165.45
2019-04-30T16:49:18.537Z,166.15
2019-04-30T16:51:49.910Z,169.57
2019-04-30T16:54:18.706Z,165.77
2019-04-30T16:56:52.366Z,167.35
2019-04-30T16:59:23.250Z,168.25
2019-04-30T17:01:57.798Z,168.95
2019-04-30T17:04:49.390Z,166.10
2019-04-30T17:07:38.687Z,166.47
2019-04-30T17:10:18.885Z,163.00
2019-04-30T17:13:40.023Z,162.55
2019-04-30T17:16:11.324Z,165.10
2019-04-30T17:18:38.793Z,164.37
2019-04-30T17:21:09.756Z,164.67
2019-04-30T17:23:36.637Z,164.65
2019-04-30T17:26:03.755Z,162.77
2019-04-30T17:28:31.928Z,163.35
2019-04-30T17:30:59.014Z,161.92
2019-04-30T17:33:26.073Z,163.10
2019-04-30T17:35:53.156Z,161.40
2019-04-30T17:38:20.247Z,163.52
2019-04-30T17:40:49.678Z,162.22
2019-04-30T17:43:16.287Z,162.57
2019-04-30T17:45:52.878Z,164.50
2019-04-30T17:48:19.903Z,163.22
2019-04-30T17:50:47.070Z,165.60
2019-04-30T17:53:14.522Z,163.60
2019-04-30T17:55:50.029Z,165.18
2019-04-30T17:58:20.427Z,165.25
2019-04-30T18:00:51.248Z,164.52
2019-04-30T18:03:19.542Z,165.10
2019-04-30T18:05:49.182Z,164.28
2019-04-30T18:08:16.891Z,164.47
2019-04-30T18:10:44.930Z,165.50
2019-04-30T18:13:12.503Z,164.30
2019-04-30T18:15:39.564Z,163.60
2019-04-30T18:18:20.877Z,162.25
2019-04-30T18:21:05.029Z,162.00
2019-04-30T18:23:53.859Z,161.43
2019-04-30T18:27:01.352Z,160.60
2019-04-30T18:29:29.415Z,161.03
2019-04-30T18:31:56.481Z,161.77
2019-04-30T18:34:23.583Z,163.28
2019-04-30T18:36:51.277Z,161.50
2019-04-30T18:39:18.925Z,161.80
2019-04-30T18:41:46.468Z,163.72
2019-04-30T18:44:13.772Z,160.67
2019-04-30T18:46:41.050Z,161.80
2019-04-30T18:49:11.338Z,162.12
2019-04-30T18:51:42.121Z,161.75
2019-04-30T18:54:07.944Z,164.18
2019-04-30T18:56:35.183Z,160.25
2019-04-30T18:59:02.488Z,159.70
2019-04-30T19:01:29.571Z,160.55
2019-04-30T19:03:58.454Z,160.57
2019-04-30T19:06:26.437Z,160.95
2019-04-30T19:09:29.680Z,162.18
2019-04-30T19:12:08.533Z,161.62
2019-04-30T19:14:49.222Z,159.63
2019-04-30T19:17:49.466Z,160.37
2019-04-30T19:20:26.388Z,159.18
2019-04-30T19:22:53.644Z,160.45
2019-04-30T19:25:21.512Z,159.82
2019-04-30T19:27:48.746Z,160.65
2019-04-30T19:30:19.280Z,161.18
2019-04-30T19:32:49.208Z,160.65
2019-04-30T19:35:18.774Z,161.22
2019-04-30T19:37:46.209Z,163.28
2019-04-30T19:40:13.350Z,161.60
2019-04-30T19:42:40.709Z,163.25
2019-04-30T19:45:12.019Z,161.52
2019-04-30T19:47:39.069Z,159.27
2019-04-30T19:50:09.384Z,159.75
2019-04-30T19:52:38.629Z,161.37
2019-04-30T19:55:06.085Z,161.18
2019-04-30T19:57:41.068Z,161.73
2019-04-30T20:00:09.311Z,161.88
2019-04-30T20:02:40.403Z,161.80
2019-04-30T20:05:09.007Z,160.28
2019-04-30T20:07:36.561Z,159.18
2019-04-30T20:10:11.647Z,161.32
2019-04-30T20:12:40.288Z,160.10
2019-04-30T20:15:17.186Z,159.55
2019-04-30T20:17:39.552Z,162.57
2019-04-30T20:20:09.116Z,160.28
2019-04-30T20:22:38.835Z,159.20
2019-04-30T20:25:09.168Z,161.20
2019-04-30T20:27:39.675Z,159.45
2019-04-30T20:30:09.549Z,158.90
2019-04-30T20:32:37.054Z,158.72
2019-04-30T20:35:06.618Z,159.12
2019-04-30T20:37:55.390Z,161.88
2019-04-30T20:40:24.667Z,165.15
2019-04-30T20:42:53.447Z,159.70
2019-04-30T20:45:22.771Z,160.52
2019-04-30T20:47:50.384Z,160.32
2019-04-30T20:50:18.750Z,161.47
2019-04-30T20:52:46.000Z,161.43
2019-04-30T20:55:13.320Z,161.55
2019-04-30T20:57:40.479Z,159.60
2019-04-30T21:00:09.725Z,162.18
2019-04-30T21:02:38.833Z,159.95
2019-04-30T21:05:09.781Z,162.10
2019-04-30T21:07:41.804Z,160.78
2019-04-30T21:10:10.156Z,161.97
2019-04-30T21:12:41.162Z,162.18
2019-04-30T21:15:09.665Z,160.95
2019-04-30T21:17:38.672Z,159.63
2019-04-30T21:20:09.618Z,159.60
2019-04-30T21:22:38.831Z,158.47
2019-04-30T21:25:06.647Z,160.65
2019-04-30T21:27:33.799Z,159.50
2019-04-30T21:30:04.189Z,159.18
2019-04-30T21:33:11.531Z,159.18
2019-04-30T21:35:52.581Z,157.78
2019-04-30T21:38:19.818Z,157.70
2019-04-30T21:40:46.887Z,158.65
2019-04-30T21:43:15.786Z,160.03
2019-04-30T21:45:45.143Z,158.65
2019-04-30T21:48:12.200Z,157.65
2019-04-30T21:50:39.838Z,159.72
2019-04-30T21:53:09.836Z,158.75
2019-04-30T21:55:37.149Z,160.63
2019-04-30T21:58:09.378Z,160.03
2019-04-30T22:00:59.410Z,160.05
2019-04-30T22:03:39.790Z,159.25
2019-04-30T22:06:08.468Z,159.12
2019-04-30T22:08:38.687Z,159.70
2019-04-30T22:11:06.548Z,159.20
2019-04-30T22:13:36.161Z,159.97
2019-04-30T22:16:03.567Z,159.30
2019-04-30T22:18:30.647Z,160.63
2019-04-30T22:20:57.712Z,160.63
2019-04-30T22:23:24.783Z,160.05
2019-04-30T22:25:51.813Z,158.70
2019-04-30T22:28:19.247Z,159.70
2019-04-30T22:30:50.407Z,161.03
2019-04-30T22:33:22.692Z,160.30
2019-04-30T22:36:01.961Z,159.40
2019-04-30T22:38:32.623Z,161.03
2019-04-30T22:41:01.520Z,159.55
2019-04-30T22:43:28.566Z,159.93
2019-04-30T22:46:09.839Z,158.75
2019-04-30T22:48:37.359Z,159.37
2019-04-30T22:51:13.327Z,160.88
2019-04-30T22:53:40.686Z,160.28
2019-04-30T22:56:09.483Z,158.78
2019-04-30T22:58:36.914Z,159.05
2019-04-30T23:01:23.014Z,158.72
2019-04-30T23:03:53.209Z,159.52
2019-04-30T23:06:22.617Z,162.43
2019-04-30T23:08:50.408Z,158.90
2019-04-30T23:11:19.249Z,158.15
2019-04-30T23:13:46.361Z,159.70
2019-04-30T23:16:14.625Z,159.55
2019-04-30T23:18:43.796Z,158.42
2019-04-30T23:21:23.751Z,160.12
2019-04-30T23:23:53.605Z,159.12
2019-04-30T23:26:20.697Z,159.97
2019-04-30T23:28:47.831Z,158.45
2019-04-30T23:31:14.913Z,157.40
2019-04-30T23:33:41.974Z,157.67
2019-04-30T23:36:09.150Z,158.40
2019-04-30T23:38:38.666Z,158.87
2019-04-30T23:41:07.796Z,160.35
2019-04-30T23:43:34.880Z,158.20
2019-04-30T23:46:03.577Z,158.37
2019-04-30T23:48:30.755Z,158.60
2019-04-30T23:50:59.285Z,157.65
2019-04-30T23:53:26.351Z,158.05
2019-04-30T23:55:53.508Z,158.45
2019-04-30T23:58:20.585Z,160.28
